Greenville, SC (29602)

7:53 AM EST on November 26, 2014 (GMT -0500)
Woodmont Middle School | Change Station
CLOSE
Current Station
Personal Weather Station
Location: Piedmont, SC
Elevation: 865 ft
Nearby Weather Stations

Elev 865 ft 34.69 °N, 82.41 °W | Updated 14 seconds ago

Rain
Rain Mist
45.4 °F
Feels Like 45 °F
N
0.0
Wind Variable Wind from NNE
Gusts 0.0 mph

Today
High -- | Low -- °F
--% Chance of Precip.
Yesterday
High -- | Low -- °F
Precip. -- in
7:13 AM 5:19 PM
Waxing Crescent, 19% visible
Pressure 30.01 in
Visibility 2.0 miles
Clouds Mostly Cloudy 500 ft
Overcast 3000 ft
Windchill 45 °F
Dew Point 44 °F
Humidity 95%
Rainfall 0.11 in
Snow Depth Not available.
UV 0.0 out of 12
Pollen .30 out of 12
Air Quality Not available.
Flu Activity Not available.
METAR KGYH 261247Z 00000KT 2SM RA BR BKN005 OVC030 06/06 A3001

More Conditions Fewer Conditions

Pressure 30.01 in
Visibility 2.0 miles
Clouds Mostly Cloudy 500 ft
Overcast 3000 ft
Windchill 45 °F
Dew Point 44 °F
Humidity 95%
Rainfall 0.11 in
Snow Depth Not available.
UV 0.0 out of 12
Pollen .30 out of 12
Air Quality Not available.
Flu Activity Not available.
METAR KGYH 261247Z 00000KT 2SM RA BR BKN005 OVC030 06/06 A3001

More Conditions Fewer Conditions

10-Day Weather Forecast

Almanac

Astronomy

Nov. 26, 2014 Rise Set
Actual Time
Civil Twilight
Nautical Twilight
Astronomical Twilight
Moon
Length of Visible Light
Length of Day
Tomorrow will be .
, % of the Moon is Illuminated

Today's Extremes

State Highs State Lows

Community

WunderPhotos

Upload Photos

1,773,715 photos uploaded!

WunderBlogs® & News

Nearby

Air Quality

  Air Quality AQ Index Pollutant
Not available.

Snow Depth

Station Depth Elevation

Earthquake Activity

City Distance Mag. Time & Date
Minimum magnitude displayed is 2.5.

Coastal Water Temperatures

Place Temperature

Nearby Weather Stations